Penitentiary, Colorado
Current Conditions -  °F | °C
As of 4:15 PM on Friday 19 Dec 2014 (Local Time) from K1V6 Reporting Station
Clear Clear  
Wind Chill: 46°   Ceiling: Unl
Heat Index: 48°   Visibility: 10mi
Dew Point: 10°   Wind: 6mph
Humidity: 22%   Direction: 220°SW
Pressure: 30.01"   Gusts: NA
Location:  38.533°N, 105.389°W
Report Text: K1V6 192315Z AUTO 22005KT 10SM CLR 09/M12 A3001 RMK AO2
Loading
Personal Weather Stations






























Interactive Weather Map New forecast layout! Learn more

10-Day Weather Forecast

Advertisements
Track Severe Weather on mobile